»·PEaware :: WAT3940 KSLC-KGCC

WAT3940 :: KSLC-KGCC

FLIGHT INFORMATION

Flight Status: Arrived
Operator:
Walker Air Transport
More flights by this operator :: More flights under this callsign
Pilot: Jonathan P. (42949)
Aircraft: CANADAIR CL-600 CHALLENGER
(CL60)
More flights by this aircraft type
Origin: KSLC Salt Lake City Intl
United States
Destination: KGCC Gillette-Campbell Co
United States
More flights between these airports :: More routes between these airports
Route: RUGGD3 OCS DDY V298 GCC
File this flight plan on PilotEdge
Remarks: RMK / SIMBRIEF
Altitude:
(Current/Filed)
41,000ft
Speed:
(Current/Filed)
450kts
Departed: 21-Nov-23 02:25 PM
Arrived: 21-Nov-23 03:39 PM
Distance/Time
Traveled:
356nm/1:14
Distance/Time
To Go:
Arrived

Flight Plot

Page will automatically refresh every two minutes.

Flight plan parsing failed; only flown route is shown


Map Options




Map Legend


Flown Route
Filed Route
Departure Airport
Arrival Airport
Navaid (VOR, NDB)
Fix

Horizontal Profiles

Position Reports

Time Latitude Longitude Heading Altitude Ground
Speed
21-Nov-23 14:02 40.780948 -111.958475 21 4227ft 0kts
21-Nov-23 14:03 40.780948 -111.958475 21 4227ft 0kts
21-Nov-23 14:04 40.780948 -111.958475 21 4227ft 0kts
21-Nov-23 14:05 40.780948 -111.958475 21 4227ft 0kts
21-Nov-23 14:06 40.780948 -111.958475 21 4227ft 0kts
21-Nov-23 14:07 40.780948 -111.958475 21 4227ft 0kts
21-Nov-23 14:08 40.780948 -111.958475 21 4227ft 0kts
21-Nov-23 14:09 40.780948 -111.958475 21 4227ft 0kts
21-Nov-23 14:10 40.780948 -111.958475 21 4227ft 0kts
21-Nov-23 14:11 40.780948 -111.958475 21 4227ft 0kts
21-Nov-23 14:12 40.780948 -111.958475 21 4227ft 0kts
21-Nov-23 14:13 40.780624 -111.959004 215 4227ft 10kts
21-Nov-23 14:14 40.778915 -111.959331 231 4227ft 0kts
21-Nov-23 14:15 40.778915 -111.959332 231 4227ft 0kts
21-Nov-23 14:16 40.778323 -111.960568 204 4227ft 8kts
21-Nov-23 14:17 40.775053 -111.960641 180 4227ft 14kts
21-Nov-23 14:18 40.773732 -111.960640 179 4227ft 0kts
21-Nov-23 14:19 40.772767 -111.960809 234 4227ft 0kts
21-Nov-23 14:20 40.772767 -111.960809 234 4227ft 0kts
21-Nov-23 14:21 40.772767 -111.960809 234 4227ft 0kts
21-Nov-23 14:22 40.772767 -111.960809 234 4227ft 0kts
21-Nov-23 14:23 40.772724 -111.961431 278 4227ft 14kts
21-Nov-23 14:24 40.780803 -111.962083 359 4227ft 138kts
21-Nov-23 14:25 40.832767 -111.982070 331 6735ft 241kts
21-Nov-23 14:26 40.895918 -112.029031 331 9929ft 267kts
21-Nov-23 14:27 40.963913 -112.058986 18 10038ft 263kts
21-Nov-23 14:28 41.034466 -112.023155 26 13799ft 271kts
21-Nov-23 14:29 41.075447 -111.939809 63 17363ft 284kts
21-Nov-23 14:30 41.109357 -111.842900 62 20428ft 297kts
21-Nov-23 14:31 41.128227 -111.734147 103 22497ft 345kts
21-Nov-23 14:32 41.094847 -111.597045 104 22898ft 422kts
21-Nov-23 14:33 41.057894 -111.446026 104 24944ft 439kts
21-Nov-23 14:34 41.057504 -111.286445 80 26804ft 443kts
21-Nov-23 14:35 41.071887 -111.121445 80 28496ft 455kts
21-Nov-23 14:36 41.102437 -110.958940 67 29921ft 458kts
21-Nov-23 14:37 41.144144 -110.800464 66 31827ft 451kts
21-Nov-23 14:38 41.184900 -110.643611 66 33447ft 447kts
21-Nov-23 14:39 41.223375 -110.493752 66 34838ft 442kts
21-Nov-23 14:41 41.262550 -110.339724 67 36103ft 437kts
21-Nov-23 14:42 41.301089 -110.187503 66 37034ft 435kts
21-Nov-23 14:43 41.339644 -110.034378 66 37780ft 434kts
21-Nov-23 14:44 41.377610 -109.882634 66 38477ft 431kts
21-Nov-23 14:45 41.415138 -109.731770 66 38961ft 429kts
21-Nov-23 14:46 41.452510 -109.580586 66 39334ft 429kts
21-Nov-23 14:47 41.489684 -109.429233 65 39629ft 429kts
21-Nov-23 14:48 41.526624 -109.277864 66 39824ft 429kts
21-Nov-23 14:49 41.563236 -109.126835 66 40043ft 428kts
21-Nov-23 14:50 41.608932 -108.982762 48 40206ft 413kts
21-Nov-23 14:51 41.678680 -108.860486 47 40262ft 414kts
21-Nov-23 14:52 41.748636 -108.737558 47 40259ft 416kts
21-Nov-23 14:53 41.819044 -108.613344 47 40254ft 418kts
21-Nov-23 14:54 41.889762 -108.488078 47 40219ft 421kts
21-Nov-23 14:55 41.960575 -108.362118 47 40187ft 423kts
21-Nov-23 14:56 42.031588 -108.235265 47 40204ft 423kts
21-Nov-23 14:57 42.101950 -108.109060 47 40203ft 424kts
21-Nov-23 14:58 42.172741 -107.981565 47 40135ft 428kts
21-Nov-23 14:59 42.242652 -107.855101 47 40175ft 427kts
21-Nov-23 15:00 42.312840 -107.727606 47 40213ft 427kts
21-Nov-23 15:01 42.383546 -107.598644 47 40157ft 429kts
21-Nov-23 15:02 42.454493 -107.468658 47 40158ft 430kts
21-Nov-23 15:03 42.523847 -107.341050 48 40141ft 430kts
21-Nov-23 15:04 42.594538 -107.210422 48 40130ft 430kts
21-Nov-23 15:05 42.664037 -107.081441 48 40115ft 430kts
21-Nov-23 15:05 42.722698 -106.972138 48 40111ft 429kts
21-Nov-23 15:07 42.803700 -106.820555 48 40103ft 429kts
21-Nov-23 15:08 42.873904 -106.688545 48 40112ft 428kts
21-Nov-23 15:08 42.931957 -106.578935 48 40135ft 427kts
21-Nov-23 15:09 43.001596 -106.446932 48 40128ft 428kts
21-Nov-23 15:11 43.081849 -106.301554 37 39838ft 389kts
21-Nov-23 15:12 43.170583 -106.231413 18 39416ft 369kts
21-Nov-23 15:13 43.265670 -106.176872 18 39113ft 369kts
21-Nov-23 15:13 43.343826 -106.131866 17 38307ft 355kts
21-Nov-23 15:14 43.441156 -106.075925 18 30127ft 400kts
21-Nov-23 15:15 43.543332 -106.016689 18 27526ft 405kts
21-Nov-23 15:23 43.600228 -105.985370 19 26377ft 382kts
21-Nov-23 15:24 43.700969 -105.926220 19 24224ft 399kts
21-Nov-23 15:25 43.801110 -105.861301 30 22109ft 396kts
21-Nov-23 15:26 43.880229 -105.781478 30 19707ft 306kts
21-Nov-23 15:27 43.910565 -105.695844 78 19112ft 238kts
21-Nov-23 15:28 43.914837 -105.607146 78 17384ft 227kts
21-Nov-23 15:29 43.931468 -105.529825 33 15060ft 226kts
21-Nov-23 15:30 43.993023 -105.468301 30 10069ft 271kts
21-Nov-23 15:31 44.059515 -105.430167 336 9126ft 262kts
21-Nov-23 15:32 44.113311 -105.467906 324 9117ft 186kts
21-Nov-23 15:33 44.159334 -105.488349 344 8153ft 175kts
21-Nov-23 15:34 44.207302 -105.504230 338 7215ft 175kts
21-Nov-23 15:35 44.252787 -105.517421 346 6056ft 169kts
21-Nov-23 15:36 44.296710 -105.528539 346 5115ft 142kts
21-Nov-23 15:37 44.336104 -105.538425 345 4430ft 143kts
21-Nov-23 15:38 44.356992 -105.543302 71 4335ft 17kts
21-Nov-23 15:39 44.351230 -105.540871 160 4327ft 22kts
21-Nov-23 15:40 44.347600 -105.537232 152 4330ft 16kts
21-Nov-23 15:41 44.347553 -105.533608 168 4330ft 0kts
21-Nov-23 15:42 44.347553 -105.533608 168 4330ft 0kts

Navigation Log

Ident Type
Flight plan parsing failed, navigation log unavailable